Time;durP1;ratioP1;P1;durP2;ratioP2;P2;SDS_P1;SDS_P2;PMS_P1;PMS_P2;Temp;Humidity;BMP_temperature;BMP_pressure;BME280_temperature;BME280_humidity;BME280_pressure;Samples;Min_cycle;Max_cycle;Signal;HPM_P1;HPM_P2
2023/08/31 00:00:37;;;;;;;7.72;3.17;;;;;;;18.17;60.08;100116.59;10416513;28;20052;-68
2023/08/31 00:05:41;;;;;;;4.70;3.33;;;;;;;18.20;60.15;100113.44;10415300;28;20041;-68
2023/08/31 00:10:42;;;;;;;9.30;3.08;;;;;;;18.14;60.34;100122.41;10416117;28;20040;-68
2023/08/31 00:15:43;;;;;;;10.68;3.13;;;;;;;18.06;60.66;100106.56;10415351;28;20045;-68
2023/08/31 00:20:44;;;;;;;7.65;2.92;;;;;;;17.91;60.86;100081.91;10414771;28;20095;-68
2023/08/31 00:25:47;;;;;;;8.57;3.45;;;;;;;18.14;60.99;100122.41;10415160;28;20135;-68
2023/08/31 00:30:48;;;;;;;5.27;2.87;;;;;;;18.11;60.89;100133.59;10415760;28;20461;-69
2023/08/31 00:35:49;;;;;;;11.70;2.70;;;;;;;18.07;61.02;100123.50;10414168;28;20129;-69
2023/08/31 00:40:50;;;;;;;7.63;3.03;;;;;;;17.68;61.53;100083.34;10413944;28;20501;-68
2023/08/31 00:45:54;;;;;;;5.57;3.17;;;;;;;17.82;61.81;100120.88;10414197;28;20045;-68
2023/08/31 00:50:54;;;;;;;;;;;;;;;17.93;62.42;100120.16;10414152;28;20099;-69
2023/08/31 00:55:55;;;;;;;11.18;3.10;;;;;;;17.67;61.92;100099.69;10412545;28;19917;-68
2023/08/31 01:01:18;;;;;;;8.52;3.25;;;;;;;17.78;63.75;100110.56;10413886;28;20034;-68
2023/08/31 01:06:25;;;;;;;8.88;2.97;;;;;;;17.71;63.83;100109.78;10413611;28;20077;-68
2023/08/31 01:11:40;;;;;;;10.23;3.15;;;;;;;17.67;64.32;100097.81;10414058;28;20509;-68
2023/08/31 01:16:44;;;;;;;5.85;3.30;;;;;;;17.75;62.84;100108.28;10413409;28;20057;-68
2023/08/31 01:21:50;;;;;;;5.97;3.20;;;;;;;17.46;63.71;100099.03;10413907;28;20164;-68
2023/08/31 01:26:52;;;;;;;21.75;3.80;;;;;;;17.24;64.00;100114.69;10415468;28;20193;-68
2023/08/31 01:31:53;;;;;;;26.30;4.82;;;;;;;16.97;64.90;100118.59;10422011;28;20033;-69
2023/08/31 01:37:00;;;;;;;12.00;3.65;;;;;;;16.83;66.97;100123.19;10412568;28;20497;-68
2023/08/31 01:42:04;;;;;;;32.17;4.47;;;;;;;16.67;66.26;100121.81;10412417;28;20090;-68
2023/08/31 01:47:06;;;;;;;35.15;5.18;;;;;;;16.54;66.76;100129.88;10414414;28;20041;-68
2023/08/31 01:52:07;;;;;;;16.48;3.88;;;;;;;16.32;67.21;100138.22;10421784;28;20045;-68
2023/08/31 01:57:08;;;;;;;23.75;4.22;;;;;;;16.31;67.48;100138.44;10425269;28;20545;-67
2023/08/31 02:02:08;;;;;;;20.45;4.50;;;;;;;16.23;67.59;100136.78;10427797;28;20060;-68
2023/08/31 02:07:09;;;;;;;26.27;4.63;;;;;;;16.11;67.99;100141.16;10419878;28;20042;-68
2023/08/31 02:12:10;;;;;;;6.45;3.60;;;;;;;16.04;68.22;100145.72;10456121;28;20452;-68
2023/08/31 02:17:11;;;;;;;25.45;4.35;;;;;;;15.86;68.65;100125.75;10454916;28;20045;-69
2023/08/31 02:22:12;;;;;;;15.05;3.95;;;;;;;15.93;68.95;100147.16;10440579;28;20041;-68
2023/08/31 02:27:12;;;;;;;12.05;3.38;;;;;;;15.48;69.21;100110.25;10419712;28;20059;-67
2023/08/31 02:32:13;;;;;;;21.85;3.97;;;;;;;15.74;69.92;100168.38;10441205;28;20051;-68
2023/08/31 02:37:14;;;;;;;135.55;12.70;;;;;;;15.62;69.97;100171.88;10459930;28;20067;-68
2023/08/31 02:42:14;;;;;;;42.63;6.05;;;;;;;15.59;70.25;100154.34;10460107;28;20047;-68
2023/08/31 02:47:15;;;;;;;43.22;5.78;;;;;;;15.68;70.23;100173.75;10449446;28;20045;-68
2023/08/31 02:52:16;;;;;;;16.23;4.85;;;;;;;15.79;70.08;100175.78;10418216;28;20043;-68
2023/08/31 02:57:19;;;;;;;12.82;4.90;;;;;;;15.84;70.16;100176.00;10417707;28;20037;-68
2023/08/31 03:02:20;;;;;;;25.53;6.17;;;;;;;16.03;69.88;100186.91;10418298;28;20108;-67
2023/08/31 03:07:20;;;;;;;66.70;8.25;;;;;;;16.24;70.17;100191.22;10417436;28;20045;-68
2023/08/31 03:12:21;;;;;;;196.43;15.18;;;;;;;16.14;69.91;100138.06;10417479;28;20045;-68
2023/08/31 03:17:22;;;;;;;495.67;39.10;;;;;;;16.72;69.79;100194.41;10417727;28;20040;-68
2023/08/31 03:22:23;;;;;;;139.90;13.38;;;;;;;17.32;69.07;100204.91;10418206;28;20477;-69
2023/08/31 03:27:25;;;;;;;25.95;7.10;;;;;;;18.22;68.58;100205.47;10416341;28;20065;-67
2023/08/31 03:32:26;;;;;;;17.45;6.63;;;;;;;19.17;66.77;100201.50;10417146;28;20045;-68
2023/08/31 03:37:27;;;;;;;21.50;6.05;;;;;;;19.85;64.98;100151.78;10416984;28;20033;-71
2023/08/31 03:42:27;;;;;;;29.48;6.20;;;;;;;21.05;62.45;100193.50;10432879;28;20413;-72
2023/08/31 03:47:28;;;;;;;53.63;7.25;;;;;;;21.92;59.94;100196.94;10426553;28;20045;-71
2023/08/31 03:52:29;;;;;;;17.15;5.22;;;;;;;22.41;57.60;100156.59;10419832;28;20029;-72
2023/08/31 03:57:30;;;;;;;17.90;5.55;;;;;;;23.06;55.34;100180.09;10423549;28;20041;-72
2023/08/31 04:02:31;;;;;;;20.42;7.15;;;;;;;23.61;53.39;100153.81;10429910;28;20049;-72
2023/08/31 04:07:34;;;;;;;30.30;7.90;;;;;;;24.44;51.67;100210.31;10420213;28;20532;-71
2023/08/31 04:12:35;;;;;;;23.52;5.90;;;;;;;24.86;50.65;100188.53;10418863;28;20083;-71
2023/08/31 04:17:35;;;;;;;30.20;5.97;;;;;;;25.32;49.39;100215.84;10421848;28;20065;-72
2023/08/31 04:22:36;;;;;;;31.17;5.65;;;;;;;25.63;48.49;100205.00;10438666;28;20500;-71
2023/08/31 04:27:39;;;;;;;21.48;5.78;;;;;;;25.86;47.57;100212.66;10422067;28;20064;-71
2023/08/31 04:32:40;;;;;;;21.05;4.45;;;;;;;25.87;46.37;100176.19;10422523;28;20048;-71
2023/08/31 04:37:41;;;;;;;32.10;5.28;;;;;;;26.31;46.06;100231.94;10440991;28;20045;-72
2023/08/31 04:42:42;;;;;;;28.60;5.70;;;;;;;26.14;45.72;100222.16;10422531;28;20106;-71
2023/08/31 04:47:43;;;;;;;32.03;5.03;;;;;;;25.98;45.12;100196.06;10413376;28;20041;-71
2023/08/31 04:52:44;;;;;;;24.58;4.55;;;;;;;26.06;45.90;100227.38;10422674;28;20045;-75
2023/08/31 04:57:44;;;;;;;26.85;4.35;;;;;;;25.41;47.44;100189.78;10413209;28;20045;-75
2023/08/31 05:02:45;;;;;;;15.98;4.53;;;;;;;24.97;50.11;100181.22;10413191;28;20079;-73
2023/08/31 05:07:46;;;;;;;18.10;4.72;;;;;;;25.08;51.19;100211.97;10411936;28;20057;-75
2023/08/31 05:12:47;;;;;;;12.45;4.13;;;;;;;25.10;51.31;100172.56;10411974;28;20041;-74
2023/08/31 05:17:48;;;;;;;10.80;4.32;;;;;;;25.15;52.26;100182.66;10412828;28;20424;-73
2023/08/31 05:22:49;;;;;;;7.63;3.63;;;;;;;25.09;53.46;100173.63;10412608;28;20037;-75
2023/08/31 05:27:50;;;;;;;26.77;4.63;;;;;;;25.47;53.10;100218.59;10413612;28;20144;-73
2023/08/31 05:32:50;;;;;;;8.55;3.42;;;;;;;25.38;52.92;100179.44;10413511;28;20049;-75
2023/08/31 05:37:51;;;;;;;15.73;3.53;;;;;;;25.61;52.51;100194.41;10412897;28;20092;-75
2023/08/31 05:42:52;;;;;;;11.05;3.35;;;;;;;25.75;52.78;100240.94;10412206;28;20087;-76
2023/08/31 05:47:52;;;;;;;7.55;3.15;;;;;;;25.74;52.11;100231.94;10412805;28;20047;-75
2023/08/31 05:52:54;;;;;;;13.23;3.72;;;;;;;25.82;51.87;100211.59;10412246;28;20033;-77
2023/08/31 05:57:54;;;;;;;7.95;3.22;;;;;;;26.07;51.28;100205.31;10412402;28;20124;-74
2023/08/31 06:02:55;;;;;;;8.20;3.15;;;;;;;26.44;50.79;100252.34;10411924;28;20065;-74
2023/08/31 06:07:56;;;;;;;14.65;3.97;;;;;;;25.61;50.63;100110.09;10411884;28;20496;-76
2023/08/31 06:12:57;;;;;;;7.75;3.38;;;;;;;26.74;50.26;100240.56;10411645;28;20421;-75
2023/08/31 06:17:57;;;;;;;8.38;3.38;;;;;;;26.63;50.58;100246.06;10412580;28;20409;-74
2023/08/31 06:22:59;;;;;;;11.95;2.80;;;;;;;26.52;50.08;100189.16;10412172;28;20451;-76
2023/08/31 06:28:00;;;;;;;19.30;3.65;;;;;;;26.97;49.81;100233.69;10412351;28;20136;-74
2023/08/31 06:33:01;;;;;;;17.60;3.50;;;;;;;27.15;49.11;100232.25;10413683;28;20102;-73
2023/08/31 06:38:01;;;;;;;11.98;3.15;;;;;;;27.36;49.04;100243.88;10418962;28;20114;-72
2023/08/31 06:43:03;;;;;;;19.38;3.28;;;;;;;27.33;48.58;100234.31;10418518;28;20044;-72
2023/08/31 06:48:04;;;;;;;6.63;2.83;;;;;;;27.29;48.31;100225.91;10417017;28;20041;-72
2023/08/31 06:53:05;;;;;;;30.92;3.47;;;;;;;27.62;48.06;100248.06;10418115;28;20045;-73
2023/08/31 06:58:06;;;;;;;15.55;3.17;;;;;;;27.68;47.26;100251.56;10418212;28;20132;-73
2023/08/31 07:03:06;;;;;;;9.55;3.05;;;;;;;27.71;46.82;100249.09;10418430;28;20091;-75
2023/08/31 07:08:08;;;;;;;28.90;3.85;;;;;;;27.86;45.87;100245.44;10418247;28;20489;-75
2023/08/31 07:13:08;;;;;;;17.17;3.50;;;;;;;28.11;44.87;100219.81;10418669;28;20045;-74
2023/08/31 07:18:09;;;;;;;13.63;3.60;;;;;;;28.22;44.49;100201.44;10417996;28;20037;-76
2023/08/31 07:23:10;;;;;;;9.73;3.05;;;;;;;28.38;43.76;100191.16;10418514;28;20079;-76
2023/08/31 07:28:11;;;;;;;19.58;3.63;;;;;;;28.74;43.63;100205.22;10417769;28;20065;-73
2023/08/31 07:33:11;;;;;;;17.33;3.65;;;;;;;28.90;42.92;100208.59;10417317;28;20049;-75
2023/08/31 07:38:12;;;;;;;18.48;3.35;;;;;;;28.92;42.96;100205.56;10416423;28;20057;-75
2023/08/31 07:43:13;;;;;;;9.45;3.45;;;;;;;28.97;42.51;100184.44;10417318;28;20033;-75
2023/08/31 07:48:14;;;;;;;17.73;3.65;;;;;;;29.11;42.33;100170.88;10416559;28;20037;-75
2023/08/31 07:53:17;;;;;;;21.85;3.92;;;;;;;29.33;42.25;100183.94;10415893;28;20088;-73
2023/08/31 07:58:17;;;;;;;13.48;3.65;;;;;;;29.48;40.71;100178.22;10415666;28;20049;-73
2023/08/31 08:03:18;;;;;;;23.02;4.30;;;;;;;29.53;40.21;100182.81;10416265;28;20041;-75
2023/08/31 08:08:19;;;;;;;28.92;3.70;;;;;;;29.69;39.45;100175.19;10415836;28;20490;-74
2023/08/31 08:13:20;;;;;;;28.83;4.07;;;;;;;29.48;39.53;100128.16;10415138;28;20034;-75
2023/08/31 08:18:21;;;;;;;24.17;4.40;;;;;;;29.85;39.66;100176.53;10414295;28;20077;-76
2023/08/31 08:23:23;;;;;;;17.52;3.45;;;;;;;30.19;38.19;100150.75;10429737;28;20048;-77
2023/08/31 08:28:24;;;;;;;26.57;4.37;;;;;;;30.17;36.70;100152.97;10413138;28;20049;-75
2023/08/31 08:33:24;;;;;;;24.65;3.95;;;;;;;30.12;36.09;100123.72;10415968;28;20346;-75
2023/08/31 08:38:26;;;;;;;17.02;3.90;;;;;;;30.08;35.25;100130.13;10413198;28;20455;-73
2023/08/31 08:43:27;;;;;;;24.70;3.95;;;;;;;30.41;35.71;100125.38;10418733;28;20044;-75
2023/08/31 08:48:28;;;;;;;20.30;4.32;;;;;;;30.58;35.37;100138.47;10413070;28;20033;-75
2023/08/31 08:53:29;;;;;;;18.33;3.58;;;;;;;30.84;35.35;100125.88;10412319;28;20516;-75
2023/08/31 08:58:30;;;;;;;16.65;3.53;;;;;;;30.62;33.68;100088.19;10411563;28;20081;-74
2023/08/31 09:03:31;;;;;;;14.23;4.10;;;;;;;30.67;35.13;100106.47;10416612;28;20041;-73
2023/08/31 09:08:31;;;;;;;13.77;3.25;;;;;;;30.63;34.45;100116.41;10416235;28;20080;-73
2023/08/31 09:13:33;;;;;;;43.95;3.92;;;;;;;30.77;32.59;100100.75;10411560;28;20041;-76
2023/08/31 09:18:34;;;;;;;15.53;3.83;;;;;;;30.62;32.56;100033.34;10414627;28;20132;-75
2023/08/31 09:23:35;;;;;;;16.67;3.35;;;;;;;31.17;32.38;100089.97;10410775;28;20689;-75
2023/08/31 09:28:40;;;;;;;22.35;3.55;;;;;;;31.37;29.92;100105.94;10408730;28;20051;-75
2023/08/31 09:33:53;;;;;;;11.70;3.45;;;;;;;31.34;29.04;100072.81;10411539;28;20041;-75
2023/08/31 09:38:56;;;;;;;;;;;;;;;31.95;30.38;100095.13;10412265;28;20430;-75
2023/08/31 09:44:16;;;;;;;12.13;3.22;;;;;;;32.18;28.39;100091.19;10413867;28;19921;-75
2023/08/31 09:49:17;;;;;;;18.70;3.20;;;;;;;32.31;29.35;100094.13;10394454;28;20045;-75
2023/08/31 09:54:22;;;;;;;33.65;3.20;;;;;;;32.13;28.52;100107.84;10413129;28;20041;-74
2023/08/31 09:59:24;;;;;;;18.35;3.55;;;;;;;31.95;28.15;100067.66;10408173;28;20045;-75
2023/08/31 10:04:25;;;;;;;15.80;3.78;;;;;;;32.13;28.55;100074.84;10413122;28;20553;-73
2023/08/31 10:09:27;;;;;;;11.43;3.10;;;;;;;31.95;27.34;100042.94;10416949;28;20041;-73
2023/08/31 10:14:28;;;;;;;43.13;5.22;;;;;;;32.29;28.42;100070.53;10420814;28;20405;-74
2023/08/31 10:19:29;;;;;;;14.25;3.10;;;;;;;32.24;28.28;100058.88;10419990;28;20041;-73
2023/08/31 10:24:59;;;;;;;86.03;7.45;;;;;;;32.51;28.92;100050.34;10419403;28;20264;-75
2023/08/31 10:30:21;;;;;;;19.08;3.15;;;;;;;32.44;27.99;100049.19;10419854;28;20041;-76
2023/08/31 10:35:22;;;;;;;7.63;3.28;;;;;;;32.32;28.57;100038.03;10418928;28;20140;-74
2023/08/31 10:40:23;;;;;;;14.10;4.10;;;;;;;32.22;29.28;100023.47;10419232;28;20124;-74
2023/08/31 10:45:24;;;;;;;22.23;4.33;;;;;;;32.44;29.03;100029.97;10418974;28;20148;-73
2023/08/31 10:50:25;;;;;;;25.20;4.22;;;;;;;32.08;28.58;99984.31;10418223;28;20469;-74
2023/08/31 10:55:31;;;;;;;17.40;3.90;;;;;;;32.57;28.63;100026.25;10418153;28;20041;-75
2023/08/31 11:00:52;;;;;;;23.73;4.32;;;;;;;32.81;28.07;100033.22;10418081;28;20132;-74
2023/08/31 11:05:53;;;;;;;17.73;4.07;;;;;;;32.51;27.72;100017.38;10417839;28;20124;-75
2023/08/31 11:10:54;;;;;;;19.20;3.67;;;;;;;32.77;27.72;100010.25;10418231;28;20069;-74
2023/08/31 11:15:56;;;;;;;18.17;3.50;;;;;;;32.70;27.93;100000.56;10417510;28;20052;-73
2023/08/31 11:20:57;;;;;;;17.27;3.57;;;;;;;32.80;27.99;100006.84;10416814;28;20107;-74
2023/08/31 11:25:58;;;;;;;15.93;3.70;;;;;;;32.18;27.86;99923.53;10422358;28;20057;-74
2023/08/31 11:30:59;;;;;;;22.33;4.03;;;;;;;32.48;28.06;99993.25;10435184;28;20049;-74
2023/08/31 11:36:00;;;;;;;19.60;4.25;;;;;;;32.53;27.48;99989.56;10416628;28;20515;-74
2023/08/31 11:41:01;;;;;;;9.45;3.58;;;;;;;32.56;28.14;99994.41;10417207;28;20044;-74
2023/08/31 11:46:04;;;;;;;14.05;3.92;;;;;;;32.65;27.88;99995.22;10437902;28;20045;-73
2023/08/31 11:51:05;;;;;;;14.25;4.03;;;;;;;32.57;27.43;100001.53;10458423;28;20044;-75
2023/08/31 11:56:06;;;;;;;7.10;3.67;;;;;;;32.48;26.93;99993.25;10457476;28;20044;-75
2023/08/31 12:01:06;;;;;;;14.00;3.33;;;;;;;32.53;27.88;99995.06;10457272;28;20439;-75
2023/08/31 12:06:07;;;;;;;27.13;4.20;;;;;;;32.54;27.73;99982.91;10456569;28;20067;-73
2023/08/31 12:11:08;;;;;;;11.57;4.00;;;;;;;32.31;27.34;99959.44;10456457;28;20542;-73
2023/08/31 12:16:12;;;;;;;11.05;3.53;;;;;;;32.23;27.71;99948.13;10456068;28;20043;-75
2023/08/31 12:21:13;;;;;;;16.77;4.25;;;;;;;32.42;28.19;99947.78;10456352;28;20067;-73
2023/08/31 12:26:14;;;;;;;10.63;3.72;;;;;;;32.36;27.90;99923.56;10439687;28;20061;-75
2023/08/31 12:31:14;;;;;;;12.00;3.67;;;;;;;32.53;28.16;99962.06;10434083;28;20523;-72
2023/08/31 12:36:15;;;;;;;17.92;4.07;;;;;;;32.38;28.26;99951.53;10419738;28;20051;-75
2023/08/31 12:41:17;;;;;;;12.40;3.95;;;;;;;31.76;28.63;99856.44;10438052;28;20049;-76
2023/08/31 12:46:18;;;;;;;19.33;3.92;;;;;;;32.31;29.39;99934.69;10455607;28;20045;-76
2023/08/31 12:51:19;;;;;;;26.73;4.43;;;;;;;32.41;29.49;99959.13;10455354;28;20033;-75
2023/08/31 12:56:22;;;;;;;28.88;4.47;;;;;;;32.21;29.88;99933.09;10444170;28;20048;-74
2023/08/31 13:01:23;;;;;;;17.98;3.90;;;;;;;31.90;29.62;99906.56;10413459;28;20111;-72
2023/08/31 13:06:25;;;;;;;11.75;4.15;;;;;;;32.15;30.31;99961.84;10414910;28;20041;-75
2023/08/31 13:11:26;;;;;;;25.07;4.83;;;;;;;31.90;30.22;99933.22;10415952;28;20048;-75
2023/08/31 13:16:26;;;;;;;21.25;4.38;;;;;;;31.90;30.75;99949.72;10428003;28;20048;-74
2023/08/31 13:21:28;;;;;;;68.32;7.32;;;;;;;31.82;30.88;99952.06;10436752;28;20037;-67
2023/08/31 13:26:29;;;;;;;23.92;4.47;;;;;;;31.41;30.85;99902.22;10454836;28;20049;-70
2023/08/31 13:31:29;;;;;;;21.42;4.57;;;;;;;31.63;31.03;99954.28;10453780;28;20036;-67
2023/08/31 13:36:30;;;;;;;13.23;4.10;;;;;;;31.09;31.36;99893.19;10453617;28;20048;-67
2023/08/31 13:41:31;;;;;;;28.65;5.30;;;;;;;31.31;31.62;99952.69;10442855;28;20037;-67
2023/08/31 13:46:31;;;;;;;11.85;3.78;;;;;;;31.11;31.94;99938.41;10420791;28;20045;-68
2023/08/31 13:51:32;;;;;;;16.63;4.30;;;;;;;31.18;32.24;99954.41;10422115;28;20056;-67
2023/08/31 13:56:34;;;;;;;10.80;3.80;;;;;;;31.05;32.31;99945.16;10420537;28;20045;-67
2023/08/31 14:01:34;;;;;;;20.63;3.97;;;;;;;30.76;32.20;99904.44;10417823;28;20120;-67
2023/08/31 14:06:36;;;;;;;27.05;4.68;;;;;;;30.46;32.35;99871.22;10419378;28;20128;-67
2023/08/31 14:11:37;;;;;;;12.73;3.80;;;;;;;30.93;32.29;99975.91;10420893;28;20087;-67
2023/08/31 14:16:38;;;;;;;37.67;5.20;;;;;;;30.45;32.26;99918.09;10422707;28;20079;-67
2023/08/31 14:21:38;;;;;;;20.95;4.35;;;;;;;30.61;32.22;99951.44;10418589;28;20067;-67
2023/08/31 14:26:39;;;;;;;35.60;4.63;;;;;;;30.06;32.33;99886.66;10419009;28;20488;-67
2023/08/31 14:31:40;;;;;;;20.88;3.80;;;;;;;30.47;32.33;99971.47;10420935;28;20040;-67
2023/08/31 14:36:41;;;;;;;14.23;3.55;;;;;;;30.36;32.55;99974.75;10452563;28;20099;-66
2023/08/31 14:41:42;;;;;;;65.15;7.45;;;;;;;30.14;32.95;99970.03;10460474;28;20450;-66
2023/08/31 14:46:42;;;;;;;38.42;6.40;;;;;;;30.08;33.06;99980.28;10460247;28;20049;-66
2023/08/31 14:51:44;;;;;;;24.95;6.63;;;;;;;29.61;32.85;99927.56;10443111;28;20146;-66
2023/08/31 14:56:44;;;;;;;28.05;6.68;;;;;;;29.80;32.96;99993.22;10426697;28;20049;-66
2023/08/31 15:01:45;;;;;;;43.13;5.57;;;;;;;29.60;33.62;99979.88;10418622;28;20042;-66
2023/08/31 15:06:46;;;;;;;21.58;5.55;;;;;;;29.44;33.62;99971.19;10418581;28;20124;-67
2023/08/31 15:11:47;;;;;;;21.77;5.07;;;;;;;28.97;33.76;99941.06;10418783;28;20046;-67
2023/08/31 15:16:48;;;;;;;22.40;4.00;;;;;;;28.74;33.65;99933.81;10418670;28;20068;-67
2023/08/31 15:21:49;;;;;;;36.40;4.80;;;;;;;28.66;33.87;99935.31;10417132;28;20041;-66
2023/08/31 15:26:49;;;;;;;17.25;4.65;;;;;;;28.55;33.85;99952.97;10417557;28;20065;-65
2023/08/31 15:31:50;;;;;;;18.02;4.70;;;;;;;28.64;34.34;100008.59;10417402;28;20049;-65
2023/08/31 15:36:51;;;;;;;19.75;5.10;;;;;;;28.47;34.88;100009.09;10417673;28;20045;-65
2023/08/31 15:41:52;;;;;;;35.45;5.80;;;;;;;28.32;34.89;100018.28;10417017;28;20497;-64
2023/08/31 15:46:52;;;;;;;17.98;3.95;;;;;;;28.27;35.04;100023.00;10416640;28;20037;-65
2023/08/31 15:51:54;;;;;;;27.90;4.68;;;;;;;28.05;35.25;100029.84;10414998;28;20056;-64
2023/08/31 15:56:56;;;;;;;16.55;5.00;;;;;;;27.79;35.69;100020.31;10440721;28;20102;-64
2023/08/31 16:01:57;;;;;;;16.85;5.57;;;;;;;27.70;35.98;100037.31;10457480;28;20119;-65
2023/08/31 16:06:58;;;;;;;21.63;4.57;;;;;;;27.54;36.31;100042.09;10455366;28;20044;-65
2023/08/31 16:11:58;;;;;;;15.18;3.92;;;;;;;26.85;36.97;99958.72;10453398;28;20043;-66
2023/08/31 16:17:00;;;;;;;13.43;3.55;;;;;;;27.26;37.31;100048.38;10449155;28;20040;-68
2023/08/31 16:22:00;;;;;;;23.80;3.72;;;;;;;27.17;38.04;100056.38;10417538;28;20087;-67
2023/08/31 16:27:02;;;;;;;14.50;3.60;;;;;;;26.64;38.59;100007.94;10414193;28;20095;-66
2023/08/31 16:32:03;;;;;;;23.50;4.20;;;;;;;26.83;39.76;100089.00;10414398;28;20099;-66
2023/08/31 16:37:04;;;;;;;37.40;5.75;;;;;;;26.74;43.28;100094.25;10414956;28;20088;-67
2023/08/31 16:42:05;;;;;;;58.20;6.78;;;;;;;26.17;45.56;100008.44;10415067;28;20555;-67
2023/08/31 16:47:06;;;;;;;41.47;6.15;;;;;;;26.53;47.58;100098.97;10416597;28;20049;-66
2023/08/31 16:52:07;;;;;;;40.10;6.60;;;;;;;26.42;48.26;100092.75;10442384;28;20038;-66
2023/08/31 16:57:07;;;;;;;35.20;6.47;;;;;;;26.35;49.05;100103.13;10425466;28;20045;-67
2023/08/31 17:02:09;;;;;;;32.42;6.45;;;;;;;26.19;49.68;100096.91;10414373;28;20615;-66
2023/08/31 17:07:10;;;;;;;36.55;6.50;;;;;;;25.95;50.31;100083.13;10424710;28;20038;-65
2023/08/31 17:12:10;;;;;;;23.77;6.22;;;;;;;25.70;50.94;100070.38;10413475;28;20521;-66
2023/08/31 17:17:11;;;;;;;41.40;6.63;;;;;;;25.63;51.15;100077.97;10425939;28;20535;-66
2023/08/31 17:22:12;;;;;;;29.77;6.07;;;;;;;25.71;51.85;100120.13;10431917;28;20044;-66
2023/08/31 17:27:12;;;;;;;33.38;6.75;;;;;;;25.61;52.60;100125.59;10413426;28;20065;-67
2023/08/31 17:32:15;;;;;;;36.97;7.07;;;;;;;25.28;52.86;100089.72;10422106;28;20193;-67
2023/08/31 17:37:16;;;;;;;27.25;6.07;;;;;;;25.31;53.39;100120.94;10423705;28;20042;-68
2023/08/31 17:42:16;;;;;;;34.55;6.18;;;;;;;24.90;53.94;100077.41;10423545;28;20122;-69
2023/08/31 17:47:18;;;;;;;26.98;6.72;;;;;;;25.14;54.46;100132.09;10410200;28;20045;-66
2023/08/31 17:52:18;;;;;;;32.78;6.80;;;;;;;24.72;54.69;100078.72;10431714;28;20123;-67
2023/08/31 17:57:21;;;;;;;26.98;6.18;;;;;;;24.93;55.47;100129.31;10414197;28;20136;-67
2023/08/31 18:02:22;;;;;;;35.80;6.43;;;;;;;24.57;55.96;100091.19;10416533;28;20132;-67
2023/08/31 18:07:23;;;;;;;24.67;6.00;;;;;;;24.72;56.54;100119.47;10432775;28;20049;-67
2023/08/31 18:12:23;;;;;;;31.50;6.60;;;;;;;24.63;57.25;100135.47;10421481;28;20400;-68
2023/08/31 18:17:24;;;;;;;26.77;5.63;;;;;;;24.54;57.54;100124.31;10421969;28;20060;-67
2023/08/31 18:22:26;;;;;;;21.90;5.20;;;;;;;24.45;58.26;100128.63;10413399;28;20397;-67
2023/08/31 18:27:27;;;;;;;22.35;5.65;;;;;;;24.08;58.55;100077.94;10410913;28;20053;-67
2023/08/31 18:32:30;;;;;;;20.90;4.63;;;;;;;24.12;59.02;100097.22;10429242;28;20057;-67
2023/08/31 18:37:31;;;;;;;17.80;4.57;;;;;;;23.96;59.52;100093.63;10417897;28;20099;-67
2023/08/31 18:42:31;;;;;;;12.18;3.80;;;;;;;23.76;60.10;100074.50;10429556;28;20382;-67
2023/08/31 18:47:33;;;;;;;14.20;3.78;;;;;;;23.58;60.42;100075.69;10430041;28;20045;-68
2023/08/31 18:52:34;;;;;;;15.70;3.58;;;;;;;23.81;60.83;100121.47;10419356;28;20048;-69
2023/08/31 18:57:34;;;;;;;14.60;3.38;;;;;;;23.76;61.07;100126.84;10444149;28;20051;-66
2023/08/31 19:02:35;;;;;;;20.67;3.70;;;;;;;23.52;61.22;100112.81;10418504;28;20576;-68
2023/08/31 19:07:36;;;;;;;19.80;3.47;;;;;;;23.57;61.61;100126.41;10425422;28;20045;-65
2023/08/31 19:12:37;;;;;;;19.40;3.55;;;;;;;23.18;62.03;100080.53;10419641;28;20452;-66
2023/08/31 19:17:38;;;;;;;22.17;3.70;;;;;;;23.40;62.36;100128.44;10434347;28;20045;-67
2023/08/31 19:22:39;;;;;;;10.30;3.42;;;;;;;23.36;62.70;100135.41;10426378;28;20038;-66
2023/08/31 19:27:40;;;;;;;30.55;4.25;;;;;;;22.91;63.13;100068.84;10417052;28;20087;-66
2023/08/31 19:32:41;;;;;;;21.67;3.22;;;;;;;23.13;63.49;100126.56;10416797;28;20041;-65
2023/08/31 19:37:41;;;;;;;18.85;3.60;;;;;;;23.05;63.98;100134.31;10417506;28;20037;-65
2023/08/31 19:42:42;;;;;;;16.63;3.90;;;;;;;23.02;64.12;100132.94;10416707;28;20064;-65
2023/08/31 19:47:43;;;;;;;8.43;3.35;;;;;;;22.90;64.76;100135.75;10416309;28;20574;-65
2023/08/31 19:52:46;;;;;;;16.10;3.55;;;;;;;22.80;65.11;100132.97;10417523;28;20087;-68
2023/08/31 19:57:46;;;;;;;11.93;3.10;;;;;;;22.38;65.49;100068.59;10421348;28;20052;-66
2023/08/31 20:02:47;;;;;;;18.40;3.38;;;;;;;22.71;65.83;100140.72;10421852;28;20052;-65
2023/08/31 20:07:48;;;;;;;10.95;2.88;;;;;;;;;;10414760;28;20087;-65
2023/08/31 20:12:49;;;;;;;12.02;3.40;;;;;;;22.28;66.38;100090.09;10416733;28;20038;-66
2023/08/31 20:17:51;;;;;;;11.48;3.22;;;;;;;22.25;66.84;100096.00;10415632;28;20041;-68
2023/08/31 20:22:52;;;;;;;17.70;3.42;;;;;;;22.10;67.18;100085.78;10415436;28;20034;-65
2023/08/31 20:27:53;;;;;;;12.88;3.00;;;;;;;22.25;67.43;100126.59;10415325;28;20058;-65
2023/08/31 20:32:54;;;;;;;12.80;2.80;;;;;;;21.79;68.19;100063.72;10413515;28;20128;-65
2023/08/31 20:37:55;;;;;;;9.10;3.00;;;;;;;22.33;68.63;100153.22;10414695;28;20056;-65
2023/08/31 20:42:57;;;;;;;11.95;3.08;;;;;;;22.23;69.04;100142.28;10414704;28;20037;-65
2023/08/31 20:48:05;;;;;;;10.35;3.13;;;;;;;22.20;71.02;100166.31;10415074;28;20041;-65
2023/08/31 20:53:06;;;;;;;7.55;3.25;;;;;;;22.07;70.29;100156.59;10424554;28;20032;-65
2023/08/31 20:58:06;;;;;;;19.98;2.92;;;;;;;22.07;70.37;100162.00;10414088;28;20046;-65
2023/08/31 21:03:07;;;;;;;12.30;3.30;;;;;;;21.98;70.83;100160.78;10413604;28;20525;-65
2023/08/31 21:08:08;;;;;;;10.65;3.33;;;;;;;21.77;71.36;100141.56;10413156;28;20041;-65
2023/08/31 21:13:09;;;;;;;16.60;3.17;;;;;;;21.66;72.01;100134.38;10413274;28;20116;-65
2023/08/31 21:18:09;;;;;;;15.50;3.60;;;;;;;21.35;72.69;100090.59;10413502;28;20049;-65
2023/08/31 21:23:13;;;;;;;15.07;3.25;;;;;;;21.87;72.89;100176.88;10413974;28;20045;-65
2023/08/31 21:28:13;;;;;;;8.60;3.10;;;;;;;21.84;73.30;100166.56;10412478;28;20056;-65
2023/08/31 21:33:14;;;;;;;9.52;2.92;;;;;;;21.42;74.10;100098.56;10413345;28;20288;-65
2023/08/31 21:38:15;;;;;;;11.27;3.08;;;;;;;21.65;74.61;100140.81;10412066;28;20511;-65
2023/08/31 21:43:16;;;;;;;8.93;3.13;;;;;;;21.72;75.65;100154.16;10413290;28;20042;-66
2023/08/31 21:48:17;;;;;;;7.55;3.03;;;;;;;21.69;75.65;100160.91;10412266;28;20140;-65
2023/08/31 21:53:18;;;;;;;9.82;2.97;;;;;;;21.68;76.46;100158.44;10412366;28;20041;-65
2023/08/31 21:58:18;;;;;;;9.77;3.03;;;;;;;21.49;76.69;100138.94;10412874;28;20041;-65
2023/08/31 22:03:19;;;;;;;12.13;3.20;;;;;;;21.30;76.76;100111.28;10415191;28;20049;-67
2023/08/31 22:08:20;;;;;;;19.50;2.85;;;;;;;21.54;77.39;100161.47;10421669;28;20041;-67
2023/08/31 22:13:21;;;;;;;32.85;3.67;;;;;;;21.41;77.74;100143.66;10419985;28;20132;-66
2023/08/31 22:18:21;;;;;;;15.98;3.10;;;;;;;21.19;78.36;100116.53;10419620;28;20049;-66
2023/08/31 22:23:23;;;;;;;10.02;2.60;;;;;;;21.32;78.79;100136.19;10420509;28;20130;-66
2023/08/31 22:28:24;;;;;;;41.65;5.20;;;;;;;21.38;79.21;100163.06;10419213;28;20135;-66
2023/08/31 22:33:25;;;;;;;17.17;3.25;;;;;;;21.34;79.91;100161.09;10419756;28;20044;-66
2023/08/31 22:38:25;;;;;;;9.18;2.50;;;;;;;21.32;80.43;100155.09;10419131;28;20046;-66
2023/08/31 22:43:26;;;;;;;10.95;3.20;;;;;;;20.73;80.78;100050.06;10418753;28;20433;-67
2023/08/31 22:48:27;;;;;;;10.95;3.05;;;;;;;21.25;81.24;100149.84;10419096;28;20065;-66
2023/08/31 22:53:28;;;;;;;9.52;3.15;;;;;;;21.20;82.08;100157.88;10418508;28;20123;-66